createdAt,value
2023-11-15T00:00:16.878Z,21.21
2023-11-15T00:00:48.267Z,21.23
2023-11-15T00:01:19.623Z,21.22
2023-11-15T00:01:50.970Z,21.24
2023-11-15T00:02:22.344Z,21.22
2023-11-15T00:02:53.770Z,21.23
2023-11-15T00:03:25.205Z,21.23
2023-11-15T00:03:56.606Z,21.23
2023-11-15T00:04:28.266Z,21.22
2023-11-15T00:04:59.611Z,21.22
2023-11-15T00:05:31.032Z,21.22
2023-11-15T00:06:02.816Z,21.24
2023-11-15T00:06:34.395Z,21.24
2023-11-15T00:07:05.864Z,21.24
2023-11-15T00:07:37.253Z,21.24
2023-11-15T00:08:08.571Z,21.23
2023-11-15T00:08:39.965Z,21.23
2023-11-15T00:09:11.366Z,21.21
2023-11-15T00:09:42.718Z,21.23
2023-11-15T00:10:14.047Z,21.22
2023-11-15T00:10:45.424Z,21.21
2023-11-15T00:11:16.942Z,21.22
2023-11-15T00:11:50.254Z,21.22
2023-11-15T00:12:21.586Z,21.21
2023-11-15T00:12:52.909Z,21.20
2023-11-15T00:13:24.218Z,21.21
2023-11-15T00:13:55.596Z,21.20
2023-11-15T00:14:26.936Z,21.20
2023-11-15T00:14:58.278Z,21.21
2023-11-15T00:15:31.927Z,21.22
2023-11-15T00:16:03.656Z,21.19
2023-11-15T00:16:35.013Z,21.21
2023-11-15T00:17:06.334Z,21.21
2023-11-15T00:17:37.732Z,21.21
2023-11-15T00:18:09.244Z,21.21
2023-11-15T00:18:40.627Z,21.21
2023-11-15T00:19:11.947Z,21.19
2023-11-15T00:19:43.254Z,21.22
2023-11-15T00:20:14.693Z,21.21
2023-11-15T00:20:46.163Z,21.22
2023-11-15T00:21:17.530Z,21.24
2023-11-15T00:21:48.835Z,21.23
2023-11-15T00:22:20.214Z,21.25
2023-11-15T00:22:51.552Z,21.25
2023-11-15T00:23:22.916Z,21.23
2023-11-15T00:23:54.243Z,21.24
2023-11-15T00:24:25.548Z,21.25
2023-11-15T00:24:56.934Z,21.23
2023-11-15T00:25:28.614Z,21.24
2023-11-15T00:25:59.961Z,21.24
2023-11-15T00:26:31.271Z,21.24
2023-11-15T00:27:02.692Z,21.24
2023-11-15T00:27:34.178Z,21.24
2023-11-15T00:28:05.504Z,21.24
2023-11-15T00:28:36.908Z,21.21
2023-11-15T00:29:08.474Z,21.21
2023-11-15T00:29:39.861Z,21.21
2023-11-15T00:30:11.679Z,21.21
2023-11-15T00:30:43.198Z,21.20
2023-11-15T00:31:14.747Z,21.21
2023-11-15T00:31:46.181Z,21.22
2023-11-15T00:32:17.645Z,21.22
2023-11-15T00:32:49.402Z,21.19
2023-11-15T00:33:21.005Z,21.20
2023-11-15T00:33:52.610Z,21.20
2023-11-15T00:34:24.114Z,21.20
2023-11-15T00:34:55.622Z,21.19
2023-11-15T00:35:27.089Z,21.23
2023-11-15T00:35:58.700Z,21.23
2023-11-15T00:36:30.253Z,21.23
2023-11-15T00:37:01.931Z,21.25
2023-11-15T00:37:33.380Z,21.22
2023-11-15T00:38:04.954Z,21.23
2023-11-15T00:38:36.480Z,21.23
2023-11-15T00:39:08.007Z,21.21
2023-11-15T00:39:39.487Z,21.20
2023-11-15T00:40:11.322Z,21.20
2023-11-15T00:40:42.809Z,21.22
2023-11-15T00:41:14.346Z,21.23
2023-11-15T00:41:45.836Z,21.24
2023-11-15T00:42:17.321Z,21.24
2023-11-15T00:42:48.722Z,21.25
2023-11-15T00:43:20.251Z,21.27
2023-11-15T00:43:51.734Z,21.24
2023-11-15T00:44:23.258Z,21.25
2023-11-15T00:44:54.832Z,21.24
2023-11-15T00:45:26.359Z,21.26
2023-11-15T00:45:57.906Z,21.27
2023-11-15T00:46:29.460Z,21.25
2023-11-15T00:47:00.938Z,21.26
2023-11-15T00:47:32.565Z,21.25
2023-11-15T00:48:04.332Z,21.24
2023-11-15T00:48:35.858Z,21.25
2023-11-15T00:49:07.361Z,21.26
2023-11-15T00:49:38.887Z,21.27
2023-11-15T00:50:10.354Z,21.27
2023-11-15T00:50:41.826Z,21.26
2023-11-15T00:51:13.327Z,21.27
2023-11-15T00:51:44.816Z,21.24
2023-11-15T00:52:16.232Z,21.23
2023-11-15T00:52:47.738Z,21.25
2023-11-15T00:53:19.308Z,21.24
2023-11-15T00:53:50.803Z,21.26
2023-11-15T00:54:22.285Z,21.25
2023-11-15T00:54:53.777Z,21.26
2023-11-15T00:55:25.195Z,21.25
2023-11-15T00:55:56.802Z,21.26
2023-11-15T00:56:28.265Z,21.26
2023-11-15T00:56:59.745Z,21.26
2023-11-15T00:57:31.187Z,21.27
2023-11-15T00:58:02.720Z,21.27
2023-11-15T00:58:34.287Z,21.27
2023-11-15T00:59:05.742Z,21.27
2023-11-15T00:59:37.257Z,21.26
2023-11-15T01:00:08.937Z,21.26
2023-11-15T01:00:40.489Z,21.26
2023-11-15T01:01:12.143Z,21.24
2023-11-15T01:01:43.675Z,21.25
2023-11-15T01:02:15.212Z,21.25
2023-11-15T01:02:46.793Z,21.23
2023-11-15T01:03:18.376Z,21.24
2023-11-15T01:03:49.985Z,21.24
2023-11-15T01:04:21.537Z,21.25
2023-11-15T01:04:53.076Z,21.23
2023-11-15T01:05:24.917Z,21.23
2023-11-15T01:05:56.820Z,21.23
2023-11-15T01:06:28.384Z,21.24
2023-11-15T01:06:59.983Z,21.24
2023-11-15T01:07:31.477Z,21.24
2023-11-15T01:08:02.973Z,21.25
2023-11-15T01:08:34.488Z,21.25
2023-11-15T01:09:06.165Z,21.25
2023-11-15T01:09:37.771Z,21.26
2023-11-15T01:10:09.420Z,21.26
2023-11-15T01:10:42.858Z,21.26
2023-11-15T01:11:14.265Z,21.25
2023-11-15T01:11:45.743Z,21.24
2023-11-15T01:12:17.200Z,21.24
2023-11-15T01:12:48.737Z,21.26
2023-11-15T01:13:20.376Z,21.22
2023-11-15T01:13:51.912Z,21.23
2023-11-15T01:14:23.402Z,21.22
2023-11-15T01:14:55.028Z,21.24
2023-11-15T01:15:26.643Z,21.25
2023-11-15T01:15:58.156Z,21.24
2023-11-15T01:16:29.720Z,21.21
2023-11-15T01:17:01.284Z,21.23
2023-11-15T01:17:32.792Z,21.23
2023-11-15T01:18:04.443Z,21.21
2023-11-15T01:18:35.956Z,21.23
2023-11-15T01:19:07.422Z,21.24
2023-11-15T01:19:38.931Z,21.23
2023-11-15T01:20:10.511Z,21.24
2023-11-15T01:20:42.813Z,21.24
2023-11-15T01:21:14.283Z,21.23
2023-11-15T01:21:45.754Z,21.23
2023-11-15T01:22:17.249Z,21.24
2023-11-15T01:22:48.676Z,21.24
2023-11-15T01:23:20.181Z,21.24
2023-11-15T01:23:51.701Z,21.23
2023-11-15T01:24:23.272Z,21.24
2023-11-15T01:24:54.755Z,21.24
2023-11-15T01:25:26.251Z,21.26
2023-11-15T01:25:57.776Z,21.25
2023-11-15T01:26:29.311Z,21.26
2023-11-15T01:27:00.775Z,21.25
2023-11-15T01:27:32.203Z,21.24
2023-11-15T01:28:03.636Z,21.23
2023-11-15T01:28:35.089Z,21.22
2023-11-15T01:29:06.557Z,21.23
2023-11-15T01:29:38.115Z,21.22
2023-11-15T01:30:09.788Z,21.23
2023-11-15T01:30:41.318Z,21.24
2023-11-15T01:31:12.737Z,21.22
2023-11-15T01:31:44.244Z,21.24
2023-11-15T01:32:15.728Z,21.26
2023-11-15T01:32:47.368Z,21.26
2023-11-15T01:33:19.007Z,21.23
2023-11-15T01:33:50.513Z,21.23
2023-11-15T01:34:22.011Z,21.24
2023-11-15T01:34:53.471Z,21.25
2023-11-15T01:35:25.138Z,21.25
2023-11-15T01:35:56.706Z,21.23
2023-11-15T01:36:28.509Z,21.23
2023-11-15T01:37:00.031Z,21.23
2023-11-15T01:37:31.600Z,21.24
2023-11-15T01:38:03.082Z,21.23
2023-11-15T01:38:34.559Z,21.21
2023-11-15T01:39:06.163Z,21.24
2023-11-15T01:39:37.621Z,21.25
2023-11-15T01:40:09.262Z,21.25
2023-11-15T01:40:40.725Z,21.26
2023-11-15T01:41:12.402Z,21.24
2023-11-15T01:41:46.913Z,21.23
2023-11-15T01:42:18.475Z,21.21
2023-11-15T01:42:50.041Z,21.23
2023-11-15T01:43:21.520Z,21.25
2023-11-15T01:43:53.000Z,21.23
2023-11-15T01:44:24.512Z,21.23
2023-11-15T01:44:56.010Z,21.25
2023-11-15T01:45:27.562Z,21.23
2023-11-15T01:45:59.140Z,21.24
2023-11-15T01:46:30.737Z,21.24
2023-11-15T01:47:02.332Z,21.25
2023-11-15T01:47:34.186Z,21.25
2023-11-15T01:48:05.927Z,21.25
2023-11-15T01:48:37.499Z,21.23
2023-11-15T01:49:09.041Z,21.23
2023-11-15T01:49:40.531Z,21.25
2023-11-15T01:50:12.064Z,21.24
2023-11-15T01:50:43.865Z,21.25
2023-11-15T01:51:15.396Z,21.26
2023-11-15T01:51:46.825Z,21.23
2023-11-15T01:52:18.315Z,21.26
2023-11-15T01:52:49.726Z,21.26
2023-11-15T01:53:21.905Z,21.25
2023-11-15T01:53:53.372Z,21.24
2023-11-15T01:54:24.893Z,21.20
2023-11-15T01:54:56.336Z,21.21
2023-11-15T01:55:27.849Z,21.20
2023-11-15T01:55:59.310Z,21.21
2023-11-15T01:56:30.784Z,21.21
2023-11-15T01:57:02.200Z,21.20
2023-11-15T01:57:33.602Z,21.20
2023-11-15T01:58:05.648Z,21.23
2023-11-15T01:58:37.122Z,21.22
2023-11-15T01:59:08.719Z,21.22
2023-11-15T01:59:40.212Z,21.20
2023-11-15T02:00:11.971Z,21.20
2023-11-15T02:00:43.489Z,21.21
2023-11-15T02:01:14.966Z,21.20
2023-11-15T02:01:46.497Z,21.22
2023-11-15T02:02:18.056Z,21.22
2023-11-15T02:02:49.629Z,21.22
2023-11-15T02:03:21.533Z,21.22
2023-11-15T02:03:53.175Z,21.22
2023-11-15T02:04:24.692Z,21.23
2023-11-15T02:04:56.191Z,21.23
2023-11-15T02:05:27.645Z,21.21
2023-11-15T02:05:59.170Z,21.22
2023-11-15T02:06:30.919Z,21.24
2023-11-15T02:07:02.445Z,21.23
2023-11-15T02:07:33.976Z,21.21
2023-11-15T02:08:05.511Z,21.24
2023-11-15T02:08:37.014Z,21.24
2023-11-15T02:09:08.507Z,21.26
2023-11-15T02:09:39.956Z,21.26
2023-11-15T02:10:11.399Z,21.25
2023-11-15T02:10:42.872Z,21.25
2023-11-15T02:11:14.355Z,21.27
2023-11-15T02:11:45.861Z,21.27
2023-11-15T02:12:17.321Z,21.27
2023-11-15T02:12:48.846Z,21.27
2023-11-15T02:13:21.081Z,21.27
2023-11-15T02:13:52.550Z,21.25
2023-11-15T02:14:24.051Z,21.26
2023-11-15T02:14:55.610Z,21.26
2023-11-15T02:15:27.079Z,21.26
2023-11-15T02:15:58.878Z,21.27
2023-11-15T02:16:30.428Z,21.28
2023-11-15T02:17:01.879Z,21.25
2023-11-15T02:17:33.369Z,21.27
2023-11-15T02:18:05.241Z,21.26
2023-11-15T02:18:36.962Z,21.26
2023-11-15T02:19:08.434Z,21.28
2023-11-15T02:19:39.905Z,21.29
2023-11-15T02:20:11.650Z,21.28
2023-11-15T02:20:43.040Z,21.29
2023-11-15T02:21:14.565Z,21.28
2023-11-15T02:21:46.000Z,21.28
2023-11-15T02:22:17.586Z,21.27
2023-11-15T02:22:49.945Z,21.26
2023-11-15T02:23:21.728Z,21.27
2023-11-15T02:23:53.245Z,21.26
2023-11-15T02:24:24.693Z,21.27
2023-11-15T02:24:56.125Z,21.27
2023-11-15T02:25:27.548Z,21.27
2023-11-15T02:25:58.972Z,21.26
2023-11-15T02:26:30.383Z,21.26
2023-11-15T02:27:01.934Z,21.28
2023-11-15T02:27:33.390Z,21.27
2023-11-15T02:28:04.881Z,21.28
2023-11-15T02:28:36.313Z,21.26
2023-11-15T02:29:07.782Z,21.24
2023-11-15T02:29:39.316Z,21.26
2023-11-15T02:30:11.151Z,21.26
2023-11-15T02:30:42.625Z,21.25
2023-11-15T02:31:14.121Z,21.24
2023-11-15T02:31:45.628Z,21.25
2023-11-15T02:32:17.173Z,21.25
2023-11-15T02:32:48.817Z,21.25
2023-11-15T02:33:20.525Z,21.26
2023-11-15T02:33:52.026Z,21.27
2023-11-15T02:34:23.479Z,21.27
2023-11-15T02:34:54.949Z,21.27
2023-11-15T02:35:26.460Z,21.28
2023-11-15T02:35:58.023Z,21.29
2023-11-15T02:36:29.535Z,21.27
2023-11-15T02:37:01.085Z,21.25
2023-11-15T02:37:32.639Z,21.25
2023-11-15T02:38:04.059Z,21.24
2023-11-15T02:38:35.602Z,21.26
2023-11-15T02:39:07.104Z,21.27
2023-11-15T02:39:38.592Z,21.28
2023-11-15T02:40:10.611Z,21.26
2023-11-15T02:40:45.244Z,21.26
2023-11-15T02:41:17.032Z,21.28
2023-11-15T02:41:48.473Z,21.26
2023-11-15T02:42:19.905Z,21.24
2023-11-15T02:42:51.298Z,21.27
2023-11-15T02:43:22.710Z,21.27
2023-11-15T02:43:54.078Z,21.27
2023-11-15T02:44:25.545Z,21.27
2023-11-15T02:44:57.091Z,21.29
2023-11-15T02:45:28.558Z,21.28
2023-11-15T02:46:00.083Z,21.26
2023-11-15T02:46:31.677Z,21.28
2023-11-15T02:47:03.174Z,21.27
2023-11-15T02:47:34.744Z,21.28
2023-11-15T02:48:06.294Z,21.29
2023-11-15T02:48:37.910Z,21.26
2023-11-15T02:49:09.459Z,21.28
2023-11-15T02:49:41.128Z,21.28
2023-11-15T02:50:12.676Z,21.27
2023-11-15T02:50:44.203Z,21.29
2023-11-15T02:51:15.663Z,21.28
2023-11-15T02:51:47.098Z,21.28
2023-11-15T02:52:18.590Z,21.29
2023-11-15T02:52:49.996Z,21.29
2023-11-15T02:53:21.497Z,21.30
2023-11-15T02:53:52.987Z,21.29
2023-11-15T02:54:24.437Z,21.26
2023-11-15T02:54:56.077Z,21.25
2023-11-15T02:55:27.572Z,21.24
2023-11-15T02:55:59.029Z,21.24
2023-11-15T02:56:30.860Z,21.24
2023-11-15T02:57:02.293Z,21.25
2023-11-15T02:57:33.729Z,21.25
2023-11-15T02:58:05.197Z,21.24
2023-11-15T02:58:36.771Z,21.26
2023-11-15T02:59:08.267Z,21.25
2023-11-15T02:59:39.785Z,21.26
2023-11-15T03:00:11.513Z,21.26
2023-11-15T03:00:42.969Z,21.22
2023-11-15T03:01:14.442Z,21.23
2023-11-15T03:01:46.555Z,21.23
2023-11-15T03:02:17.991Z,21.23
2023-11-15T03:02:49.528Z,21.24
2023-11-15T03:03:21.111Z,21.24
2023-11-15T03:03:52.808Z,21.25
2023-11-15T03:04:24.405Z,21.26
2023-11-15T03:04:55.904Z,21.26
2023-11-15T03:05:28.689Z,21.27
2023-11-15T03:06:00.397Z,21.24
2023-11-15T03:06:31.914Z,21.27
2023-11-15T03:07:03.409Z,21.27
2023-11-15T03:07:34.982Z,21.28
2023-11-15T03:08:06.408Z,21.28
2023-11-15T03:08:37.985Z,21.29
2023-11-15T03:09:09.564Z,21.27
2023-11-15T03:09:41.425Z,21.29
2023-11-15T03:10:12.954Z,21.29
2023-11-15T03:10:44.544Z,21.30
2023-11-15T03:11:16.034Z,21.27
2023-11-15T03:11:47.534Z,21.29
2023-11-15T03:12:19.074Z,21.28
2023-11-15T03:12:50.518Z,21.28
2023-11-15T03:13:22.021Z,21.27
2023-11-15T03:13:53.473Z,21.28
2023-11-15T03:14:24.965Z,21.27
2023-11-15T03:14:56.521Z,21.27
2023-11-15T03:15:28.484Z,21.28
2023-11-15T03:15:59.969Z,21.28
2023-11-15T03:16:31.485Z,21.27
2023-11-15T03:17:06.170Z,21.28
2023-11-15T03:17:37.691Z,21.27
2023-11-15T03:18:09.282Z,21.26
2023-11-15T03:18:40.863Z,21.27
2023-11-15T03:19:15.188Z,21.27
2023-11-15T03:19:46.678Z,21.27
2023-11-15T03:20:18.147Z,21.28
2023-11-15T03:20:50.019Z,21.27
2023-11-15T03:21:21.525Z,21.29
2023-11-15T03:21:52.919Z,21.28
2023-11-15T03:22:24.349Z,21.27
2023-11-15T03:22:55.850Z,21.29
2023-11-15T03:23:27.502Z,21.27
2023-11-15T03:23:59.040Z,21.28
2023-11-15T03:24:30.559Z,21.28
2023-11-15T03:25:02.312Z,21.29
2023-11-15T03:25:33.777Z,21.28
2023-11-15T03:26:05.319Z,21.30
2023-11-15T03:26:36.954Z,21.29
2023-11-15T03:27:08.378Z,21.31
2023-11-15T03:27:39.831Z,21.30
2023-11-15T03:28:11.305Z,21.31
2023-11-15T03:28:42.690Z,21.30
2023-11-15T03:29:14.171Z,21.30
2023-11-15T03:29:45.668Z,21.29
2023-11-15T03:30:17.448Z,21.29
2023-11-15T03:30:48.867Z,21.31
2023-11-15T03:31:20.346Z,21.28
2023-11-15T03:31:51.817Z,21.28
2023-11-15T03:32:23.404Z,21.27
2023-11-15T03:32:55.109Z,21.28
2023-11-15T03:33:26.874Z,21.29
2023-11-15T03:33:58.651Z,21.30
2023-11-15T03:34:30.214Z,21.30
2023-11-15T03:35:01.703Z,21.28
2023-11-15T03:35:33.166Z,21.29
2023-11-15T03:36:04.915Z,21.30
2023-11-15T03:36:36.384Z,21.30
2023-11-15T03:37:07.862Z,21.30
2023-11-15T03:37:39.384Z,21.29
2023-11-15T03:38:10.838Z,21.31
2023-11-15T03:38:42.374Z,21.31
2023-11-15T03:39:13.917Z,21.31
2023-11-15T03:39:45.528Z,21.30
2023-11-15T03:40:16.995Z,21.30
2023-11-15T03:40:48.528Z,21.30
2023-11-15T03:41:19.968Z,21.30
2023-11-15T03:41:51.480Z,21.29
2023-11-15T03:42:22.943Z,21.30
2023-11-15T03:42:54.413Z,21.30
2023-11-15T03:43:25.903Z,21.31
2023-11-15T03:43:57.325Z,21.30
2023-11-15T03:44:28.757Z,21.29
2023-11-15T03:45:00.277Z,21.30
2023-11-15T03:45:31.719Z,21.32
2023-11-15T03:46:03.269Z,21.32
2023-11-15T03:46:34.979Z,21.32
2023-11-15T03:47:06.576Z,21.32
2023-11-15T03:47:38.215Z,21.31
2023-11-15T03:48:09.768Z,21.32
2023-11-15T03:48:41.385Z,21.33
2023-11-15T03:49:13.068Z,21.31
2023-11-15T03:49:44.574Z,21.33
2023-11-15T03:50:16.133Z,21.32
2023-11-15T03:50:47.641Z,21.32
2023-11-15T03:51:19.166Z,21.31
2023-11-15T03:51:50.653Z,21.29
2023-11-15T03:52:22.089Z,21.29
2023-11-15T03:52:53.507Z,21.29
2023-11-15T03:53:25.098Z,21.28
2023-11-15T03:53:56.668Z,21.28
2023-11-15T03:54:28.249Z,21.28
2023-11-15T03:54:59.727Z,21.29
2023-11-15T03:55:31.150Z,21.29
2023-11-15T03:56:02.834Z,21.28
2023-11-15T03:56:34.630Z,21.25
2023-11-15T03:57:06.395Z,21.27
2023-11-15T03:57:37.854Z,21.26
2023-11-15T03:58:09.262Z,21.27
2023-11-15T03:58:40.683Z,21.26
2023-11-15T03:59:12.577Z,21.27
2023-11-15T03:59:44.111Z,21.27
2023-11-15T04:00:15.712Z,21.28
2023-11-15T04:00:47.246Z,21.29
2023-11-15T04:01:18.725Z,21.27
2023-11-15T04:01:55.163Z,21.28
2023-11-15T04:02:29.173Z,21.28
2023-11-15T04:03:00.808Z,21.27
2023-11-15T04:03:32.581Z,21.27
2023-11-15T04:04:04.454Z,21.27
2023-11-15T04:04:38.353Z,21.27
2023-11-15T04:05:10.123Z,21.28
2023-11-15T04:05:41.783Z,21.28
2023-11-15T04:06:13.342Z,21.26
2023-11-15T04:06:44.812Z,21.24
2023-11-15T04:07:16.303Z,21.25
2023-11-15T04:07:47.749Z,21.21
2023-11-15T04:08:19.373Z,21.21
2023-11-15T04:08:51.019Z,21.23
2023-11-15T04:09:22.638Z,21.23
2023-11-15T04:09:54.239Z,21.23
2023-11-15T04:10:25.744Z,21.23
2023-11-15T04:10:57.370Z,21.25
2023-11-15T04:11:29.721Z,21.26
2023-11-15T04:12:01.631Z,21.26
2023-11-15T04:12:33.462Z,21.25
2023-11-15T04:13:04.938Z,21.26
2023-11-15T04:13:36.598Z,21.26
2023-11-15T04:14:08.104Z,21.23
2023-11-15T04:14:39.630Z,21.21
2023-11-15T04:15:11.143Z,21.21
2023-11-15T04:15:42.849Z,21.22
2023-11-15T04:16:14.503Z,21.25
2023-11-15T04:16:46.093Z,21.26
2023-11-15T04:17:17.577Z,21.25
2023-11-15T04:17:49.654Z,21.24
2023-11-15T04:18:21.596Z,21.23
2023-11-15T04:18:53.092Z,21.24
2023-11-15T04:19:24.629Z,21.25
2023-11-15T04:19:56.157Z,21.24
2023-11-15T04:20:27.653Z,21.24
2023-11-15T04:20:59.242Z,21.23
2023-11-15T04:21:30.670Z,21.21
2023-11-15T04:22:11.734Z,21.24
2023-11-15T04:22:45.565Z,21.24
2023-11-15T04:23:17.101Z,21.24
2023-11-15T04:23:48.652Z,21.25
2023-11-15T04:24:20.290Z,21.25
2023-11-15T04:24:51.724Z,21.25
2023-11-15T04:25:23.262Z,21.26
2023-11-15T04:25:54.752Z,21.24
2023-11-15T04:26:26.249Z,21.24
2023-11-15T04:26:57.939Z,21.23
2023-11-15T04:27:29.435Z,21.25
2023-11-15T04:28:02.080Z,21.25
2023-11-15T04:28:33.748Z,21.26
2023-11-15T04:29:05.330Z,21.22
2023-11-15T04:29:39.672Z,21.22
2023-11-15T04:30:11.427Z,21.23
2023-11-15T04:30:42.855Z,21.24
2023-11-15T04:31:14.446Z,21.23
2023-11-15T04:31:45.935Z,21.23
2023-11-15T04:32:17.416Z,21.25
2023-11-15T04:32:48.998Z,21.24
2023-11-15T04:33:20.726Z,21.24
2023-11-15T04:33:52.322Z,21.23
2023-11-15T04:34:23.823Z,21.23
2023-11-15T04:34:55.208Z,21.23
2023-11-15T04:35:26.707Z,21.23
2023-11-15T04:35:58.214Z,21.25
2023-11-15T04:36:34.996Z,21.25
2023-11-15T04:37:06.454Z,21.23
2023-11-15T04:37:37.862Z,21.24
2023-11-15T04:38:09.296Z,21.25
2023-11-15T04:38:41.034Z,21.25
2023-11-15T04:39:12.561Z,21.28
2023-11-15T04:39:44.077Z,21.28
2023-11-15T04:40:15.488Z,21.27
2023-11-15T04:40:46.948Z,21.27
2023-11-15T04:41:18.397Z,21.27
2023-11-15T04:41:49.856Z,21.27
2023-11-15T04:42:21.555Z,21.27
2023-11-15T04:42:53.046Z,21.25
2023-11-15T04:43:24.489Z,21.25
2023-11-15T04:43:55.893Z,21.25
2023-11-15T04:44:27.352Z,21.26
2023-11-15T04:44:58.872Z,21.26
2023-11-15T04:45:30.351Z,21.27
2023-11-15T04:46:01.854Z,21.28
2023-11-15T04:46:33.299Z,21.25
2023-11-15T04:47:04.746Z,21.28
2023-11-15T04:47:36.299Z,21.27
2023-11-15T04:48:08.088Z,21.28
2023-11-15T04:48:39.722Z,21.26
2023-11-15T04:49:11.171Z,21.26
2023-11-15T04:49:42.582Z,21.26
2023-11-15T04:50:14.059Z,21.27
2023-11-15T04:50:45.590Z,21.25
2023-11-15T04:51:17.027Z,21.26
2023-11-15T04:51:48.387Z,21.25
2023-11-15T04:52:19.809Z,21.25
2023-11-15T04:52:51.209Z,21.27
2023-11-15T04:53:22.713Z,21.26
2023-11-15T04:53:54.204Z,21.27
2023-11-15T04:54:25.711Z,21.27
2023-11-15T04:54:57.207Z,21.27
2023-11-15T04:55:28.696Z,21.27
2023-11-15T04:56:00.109Z,21.26
2023-11-15T04:56:31.588Z,21.25
2023-11-15T04:57:03.113Z,21.24
2023-11-15T04:57:34.658Z,21.26
2023-11-15T04:58:06.066Z,21.27
2023-11-15T04:58:37.510Z,21.27
2023-11-15T04:59:08.946Z,21.27
2023-11-15T04:59:40.447Z,21.28
2023-11-15T05:00:12.376Z,21.27
2023-11-15T05:00:43.946Z,21.27
2023-11-15T05:01:15.391Z,21.26
2023-11-15T05:01:47.196Z,21.26
2023-11-15T05:02:18.697Z,21.26
2023-11-15T05:02:50.256Z,21.25
2023-11-15T05:03:21.853Z,21.26
2023-11-15T05:03:53.582Z,21.27
2023-11-15T05:04:25.276Z,21.30
2023-11-15T05:04:56.902Z,21.31
2023-11-15T05:05:28.444Z,21.31
2023-11-15T05:05:59.996Z,21.32
2023-11-15T05:06:31.415Z,21.29
2023-11-15T05:07:02.790Z,21.28
2023-11-15T05:07:34.300Z,21.29
2023-11-15T05:08:05.701Z,21.29
2023-11-15T05:08:37.136Z,21.28
2023-11-15T05:09:08.577Z,21.29
2023-11-15T05:09:40.053Z,21.29
2023-11-15T05:10:11.606Z,21.31
2023-11-15T05:10:43.052Z,21.30
2023-11-15T05:11:14.576Z,21.28
2023-11-15T05:11:46.047Z,21.27
2023-11-15T05:12:17.623Z,21.27
2023-11-15T05:12:49.084Z,21.29
2023-11-15T05:13:20.625Z,21.29
2023-11-15T05:13:52.102Z,21.29
2023-11-15T05:14:23.586Z,21.28
2023-11-15T05:14:55.031Z,21.27
2023-11-15T05:15:26.531Z,21.29
2023-11-15T05:16:01.024Z,21.28
2023-11-15T05:16:32.805Z,21.28
2023-11-15T05:17:04.263Z,21.29
2023-11-15T05:17:35.749Z,21.29
2023-11-15T05:18:07.466Z,21.29
2023-11-15T05:18:38.993Z,21.30
2023-11-15T05:19:10.500Z,21.29
2023-11-15T05:19:42.218Z,21.29
2023-11-15T05:20:13.673Z,21.29
2023-11-15T05:20:45.256Z,21.28
2023-11-15T05:21:16.700Z,21.28
2023-11-15T05:21:48.141Z,21.27
2023-11-15T05:22:19.656Z,21.25
2023-11-15T05:22:51.304Z,21.25
2023-11-15T05:23:22.740Z,21.26
2023-11-15T05:23:54.243Z,21.23
2023-11-15T05:24:25.672Z,21.24
2023-11-15T05:24:57.214Z,21.25
2023-11-15T05:25:28.688Z,21.25
2023-11-15T05:26:00.193Z,21.27
2023-11-15T05:26:31.725Z,21.30
2023-11-15T05:27:03.274Z,21.26
2023-11-15T05:27:34.697Z,21.28
2023-11-15T05:28:06.107Z,21.28
2023-11-15T05:28:37.500Z,21.27
2023-11-15T05:29:08.938Z,21.29
2023-11-15T05:29:40.362Z,21.28
2023-11-15T05:30:12.109Z,21.29
2023-11-15T05:30:43.524Z,21.29
2023-11-15T05:31:15.009Z,21.27
2023-11-15T05:31:46.477Z,21.25
2023-11-15T05:32:17.971Z,21.26
2023-11-15T05:32:49.475Z,21.26
2023-11-15T05:33:21.040Z,21.25
2023-11-15T05:33:52.529Z,21.24
2023-11-15T05:34:24.034Z,21.27
2023-11-15T05:34:55.455Z,21.29
2023-11-15T05:35:27.045Z,21.26
2023-11-15T05:35:58.582Z,21.27
2023-11-15T05:36:30.074Z,21.26
2023-11-15T05:37:01.534Z,21.27
2023-11-15T05:37:32.958Z,21.28
2023-11-15T05:38:04.392Z,21.26
2023-11-15T05:38:36.162Z,21.27
2023-11-15T05:39:07.677Z,21.26
2023-11-15T05:39:39.073Z,21.25
2023-11-15T05:40:10.587Z,21.26
2023-11-15T05:40:42.075Z,21.29
2023-11-15T05:41:13.509Z,21.27
2023-11-15T05:41:44.919Z,21.27
2023-11-15T05:42:16.317Z,21.29
2023-11-15T05:42:47.774Z,21.30
2023-11-15T05:43:19.261Z,21.29
2023-11-15T05:43:50.686Z,21.30
2023-11-15T05:44:22.141Z,21.31
2023-11-15T05:44:53.597Z,21.31
2023-11-15T05:45:25.052Z,21.30
2023-11-15T05:45:56.511Z,21.30
2023-11-15T05:46:28.057Z,21.30
2023-11-15T05:47:00.223Z,21.29
2023-11-15T05:47:31.838Z,21.28
2023-11-15T05:48:03.424Z,21.26
2023-11-15T05:48:34.990Z,21.28
2023-11-15T05:49:06.507Z,21.29
2023-11-15T05:49:37.946Z,21.28
2023-11-15T05:50:09.549Z,21.30
2023-11-15T05:50:41.037Z,21.29
2023-11-15T05:51:12.523Z,21.28
2023-11-15T05:51:43.964Z,21.28
2023-11-15T05:52:15.528Z,21.30
2023-11-15T05:52:47.019Z,21.28
2023-11-15T05:53:18.461Z,21.29
2023-11-15T05:53:50.029Z,21.27
2023-11-15T05:54:21.562Z,21.29
2023-11-15T05:54:53.028Z,21.28
2023-11-15T05:55:24.517Z,21.30
2023-11-15T05:55:56.049Z,21.30
2023-11-15T05:56:27.560Z,21.31
2023-11-15T05:56:59.106Z,21.30
2023-11-15T05:57:30.510Z,21.31
2023-11-15T05:58:02.075Z,21.31
2023-11-15T05:58:33.472Z,21.30
2023-11-15T05:59:04.923Z,21.30
2023-11-15T05:59:36.356Z,21.29
2023-11-15T06:00:08.130Z,21.27
2023-11-15T06:00:39.657Z,21.28
2023-11-15T06:01:11.116Z,21.29
2023-11-15T06:01:42.675Z,21.29
2023-11-15T06:02:14.125Z,21.28
2023-11-15T06:02:48.509Z,21.28
2023-11-15T06:03:20.293Z,21.30
2023-11-15T06:03:51.886Z,21.30
2023-11-15T06:04:23.461Z,21.28
2023-11-15T06:04:55.783Z,21.28
2023-11-15T06:05:27.249Z,21.29
2023-11-15T06:05:58.802Z,21.30
2023-11-15T06:06:30.320Z,21.29
2023-11-15T06:07:01.747Z,21.30
2023-11-15T06:07:33.324Z,21.28
2023-11-15T06:08:05.380Z,21.28
2023-11-15T06:08:37.045Z,21.28
2023-11-15T06:09:08.804Z,21.30
2023-11-15T06:09:40.228Z,21.27
2023-11-15T06:10:11.734Z,21.28
2023-11-15T06:10:43.261Z,21.27
2023-11-15T06:11:14.789Z,21.29
2023-11-15T06:11:46.404Z,21.30
2023-11-15T06:12:17.909Z,21.29
2023-11-15T06:12:49.308Z,21.29
2023-11-15T06:13:20.780Z,21.30
2023-11-15T06:13:52.255Z,21.30
2023-11-15T06:14:23.967Z,21.31
2023-11-15T06:14:55.403Z,21.30
2023-11-15T06:15:26.818Z,21.30
2023-11-15T06:15:58.288Z,21.32
2023-11-15T06:16:29.900Z,21.32
2023-11-15T06:17:01.421Z,21.30
2023-11-15T06:17:32.944Z,21.30
2023-11-15T06:18:04.544Z,21.29
2023-11-15T06:18:36.189Z,21.29
2023-11-15T06:19:07.713Z,21.30
2023-11-15T06:19:39.228Z,21.30
2023-11-15T06:20:10.819Z,21.31
2023-11-15T06:20:42.377Z,21.30
2023-11-15T06:21:13.922Z,21.29
2023-11-15T06:21:45.503Z,21.29
2023-11-15T06:22:17.068Z,21.29
2023-11-15T06:22:48.596Z,21.28
2023-11-15T06:23:20.140Z,21.28
2023-11-15T06:23:52.516Z,21.29
2023-11-15T06:24:24.118Z,21.27
2023-11-15T06:24:55.625Z,21.27
2023-11-15T06:25:27.101Z,21.27
2023-11-15T06:25:58.639Z,21.27
2023-11-15T06:26:30.144Z,21.28
2023-11-15T06:27:01.736Z,21.27
2023-11-15T06:27:33.518Z,21.28
2023-11-15T06:28:04.987Z,21.29
2023-11-15T06:28:36.494Z,21.30
2023-11-15T06:29:40.529Z,21.29
2023-11-15T06:30:12.022Z,21.28
2023-11-15T06:30:43.625Z,21.27
2023-11-15T06:31:14.988Z,21.26
2023-11-15T06:31:46.316Z,21.28
2023-11-15T06:32:17.648Z,21.30
2023-11-15T06:32:49.008Z,21.30
2023-11-15T06:33:20.446Z,21.28
2023-11-15T06:33:51.909Z,21.29
2023-11-15T06:34:23.476Z,21.30
2023-11-15T06:34:54.842Z,21.29
2023-11-15T06:35:26.152Z,21.29
2023-11-15T06:35:57.612Z,21.30
2023-11-15T06:36:28.944Z,21.31
2023-11-15T06:37:00.272Z,21.28
2023-11-15T06:37:31.722Z,21.29
2023-11-15T06:38:03.045Z,21.28
2023-11-15T06:38:34.373Z,21.29
2023-11-15T06:39:05.815Z,21.28
2023-11-15T06:39:37.170Z,21.27
2023-11-15T06:40:09.219Z,21.27
2023-11-15T06:40:40.813Z,21.27
2023-11-15T06:41:12.131Z,21.28
2023-11-15T06:41:43.464Z,21.27
2023-11-15T06:42:14.860Z,21.27
2023-11-15T06:42:46.188Z,21.30
2023-11-15T06:43:17.456Z,21.30
2023-11-15T06:43:48.779Z,21.30
2023-11-15T06:44:20.102Z,21.30
2023-11-15T06:44:51.429Z,21.29
2023-11-15T06:45:22.762Z,21.29
2023-11-15T06:45:54.102Z,21.27
2023-11-15T06:46:25.414Z,21.27
2023-11-15T06:46:56.757Z,21.27
2023-11-15T06:47:28.165Z,21.28